Nome, Alaska
Current Conditions -  °F | °C
As of 5:53 PM on Wednesday 22 Oct 2014 (Local Time) from PAOM Reporting Station
Broken Clouds Broken Clouds  
Wind Chill: 25°   Ceiling: 2600
Heat Index: 32°   Visibility: 10mi
Dew Point: 23°   Wind: 8mph
Humidity: 69%   Direction: 310°NW
Pressure: 29.85"   Gusts: NA
Location:  64.5°N, 165.41°W
Report Text: PAOM 230153Z 31007KT 10SM BKN026 BKN055 BKN080 00/M05 A2985 RMK AO2 SLP108 T00001050
Loading
Personal Weather Stations






























Interactive Weather Map
Tropical Storm Tracking
New forecast layout! Learn more

10-Day Weather Forecast

Advertisements
Track Severe Weather on mobile